createdAt,value
2017-07-24T00:00:53.484Z,65.62
2017-07-24T00:01:55.364Z,66.11
2017-07-24T00:02:57.236Z,66.39
2017-07-24T00:03:59.126Z,66.88
2017-07-24T00:05:00.930Z,66.07
2017-07-24T00:06:02.757Z,65.88
2017-07-24T00:07:04.644Z,66.36
2017-07-24T00:08:06.513Z,66.27
2017-07-24T00:09:08.399Z,66.55
2017-07-24T00:10:22.540Z,66.75
2017-07-24T00:11:24.410Z,66.71
2017-07-24T00:12:26.301Z,67.77
2017-07-24T00:13:28.167Z,67.49
2017-07-24T00:14:29.991Z,67.77
2017-07-24T00:15:31.802Z,68.35
2017-07-24T00:16:33.693Z,68.74
2017-07-24T00:17:35.579Z,68.44
2017-07-24T00:18:37.471Z,67.77
2017-07-24T00:19:51.616Z,67.49
2017-07-24T00:20:53.504Z,68.06
2017-07-24T00:21:55.370Z,67.19
2017-07-24T00:22:57.255Z,67.39
2017-07-24T00:23:59.061Z,66.94
2017-07-24T00:25:00.888Z,67.23
2017-07-24T00:26:02.750Z,66.46
2017-07-24T00:27:04.616Z,65.88
2017-07-24T00:28:06.485Z,65.78
2017-07-24T00:29:20.654Z,65.78
2017-07-24T00:30:22.537Z,65.59
2017-07-24T00:31:24.407Z,65.78
2017-07-24T00:32:26.294Z,65.78
2017-07-24T00:33:28.108Z,65.50
2017-07-24T00:34:29.925Z,65.98
2017-07-24T00:35:31.788Z,65.85
2017-07-24T00:36:33.661Z,66.52
2017-07-24T00:37:35.552Z,66.71
2017-07-24T00:38:49.767Z,67.00
2017-07-24T00:39:51.650Z,67.19
2017-07-24T00:40:53.521Z,66.97
2017-07-24T00:41:55.385Z,67.26
2017-07-24T00:42:57.190Z,67.65
2017-07-24T00:43:58.995Z,67.55
2017-07-24T00:45:00.875Z,67.74
2017-07-24T00:46:02.741Z,67.55
2017-07-24T00:47:04.611Z,67.65
2017-07-24T00:48:18.825Z,67.39
2017-07-24T00:49:20.684Z,66.71
2017-07-24T00:50:22.546Z,66.97
2017-07-24T00:51:24.413Z,66.97
2017-07-24T00:52:26.219Z,67.26
2017-07-24T00:53:28.050Z,68.22
2017-07-24T00:54:29.941Z,67.80
2017-07-24T00:55:31.802Z,67.42
2017-07-24T00:56:33.693Z,67.51
2017-07-24T00:57:47.903Z,67.71
2017-07-24T00:58:49.765Z,67.61
2017-07-24T00:59:51.634Z,67.42
2017-07-24T01:00:53.499Z,67.03
2017-07-24T01:01:55.305Z,66.94
2017-07-24T01:02:57.138Z,66.94
2017-07-24T01:03:59.034Z,66.94
2017-07-24T01:05:00.920Z,66.84
2017-07-24T01:06:02.808Z,66.78
2017-07-24T01:07:16.953Z,66.20
2017-07-24T01:08:18.845Z,65.72
2017-07-24T01:09:20.733Z,65.33
2017-07-24T01:10:22.620Z,64.86
2017-07-24T01:11:24.428Z,65.50
2017-07-24T01:12:26.236Z,64.76
2017-07-24T01:13:28.119Z,64.86
2017-07-24T01:14:29.989Z,64.73
2017-07-24T01:15:31.880Z,65.30
2017-07-24T01:16:46.041Z,65.20
2017-07-24T01:17:47.913Z,65.59
2017-07-24T01:18:49.780Z,65.01
2017-07-24T01:19:51.668Z,65.50
2017-07-24T01:20:53.497Z,65.20
2017-07-24T01:21:55.326Z,65.20
2017-07-24T01:22:57.191Z,65.20
2017-07-24T01:23:59.057Z,65.30
2017-07-24T01:25:00.934Z,64.73
2017-07-24T01:26:15.096Z,64.25
2017-07-24T01:27:16.962Z,64.05
2017-07-24T01:28:18.829Z,64.34
2017-07-24T01:29:20.692Z,64.05
2017-07-24T01:30:22.502Z,64.12
2017-07-24T01:31:24.341Z,64.12
2017-07-24T01:32:26.227Z,64.60
2017-07-24T01:33:28.088Z,64.22
2017-07-24T01:34:29.957Z,64.31
2017-07-24T01:35:44.099Z,64.31
2017-07-24T01:36:45.985Z,64.31
2017-07-24T01:37:47.884Z,64.25
2017-07-24T01:38:49.767Z,63.76
2017-07-24T01:39:51.571Z,63.38
2017-07-24T01:40:53.378Z,63.76
2017-07-24T01:41:55.268Z,62.80
2017-07-24T01:42:57.155Z,63.18
2017-07-24T01:44:05.295Z,62.80
2017-07-24T01:45:19.438Z,62.99
2017-07-24T01:46:21.307Z,62.61
2017-07-24T01:47:23.177Z,62.61
2017-07-24T01:48:25.066Z,62.13
2017-07-24T01:49:26.879Z,62.03
2017-07-24T01:50:28.711Z,62.32
2017-07-24T01:51:30.578Z,62.03
2017-07-24T01:52:32.463Z,62.32
2017-07-24T01:53:34.329Z,62.26
2017-07-24T01:54:48.478Z,61.77
2017-07-24T01:55:50.368Z,62.06
2017-07-24T01:56:52.258Z,61.49
2017-07-24T01:57:54.131Z,61.68
2017-07-24T01:58:55.962Z,61.77
2017-07-24T01:59:57.766Z,61.10
2017-07-24T02:00:59.640Z,61.00
2017-07-24T02:02:01.530Z,61.10
2017-07-24T02:03:03.400Z,61.10
2017-07-24T02:04:17.568Z,61.39
2017-07-24T02:05:19.434Z,61.87
2017-07-24T02:06:21.307Z,61.39
2017-07-24T02:07:23.175Z,60.91
2017-07-24T02:08:25.001Z,61.29
2017-07-24T02:09:26.815Z,61.10
2017-07-24T02:10:28.707Z,61.49
2017-07-24T02:11:30.573Z,61.10
2017-07-24T02:12:32.440Z,61.39
2017-07-24T02:13:46.609Z,61.29
2017-07-24T02:14:48.495Z,60.14
2017-07-24T02:15:50.364Z,60.72
2017-07-24T02:16:52.232Z,59.94
2017-07-24T02:17:54.043Z,60.24
2017-07-24T02:18:55.851Z,60.33
2017-07-24T02:19:57.717Z,60.04
2017-07-24T02:20:59.589Z,59.66
2017-07-24T02:22:01.450Z,60.04
2017-07-24T02:23:15.597Z,59.47
2017-07-24T02:24:17.490Z,60.04
2017-07-24T02:25:19.379Z,59.75
2017-07-24T02:26:21.265Z,60.04
2017-07-24T02:27:23.082Z,60.04
2017-07-24T02:28:24.908Z,59.85
2017-07-24T02:29:26.777Z,59.85
2017-07-24T02:30:28.645Z,59.75
2017-07-24T02:31:30.533Z,59.47
2017-07-24T02:32:44.680Z,59.94
2017-07-24T02:33:46.599Z,59.85
2017-07-24T02:34:48.490Z,59.94
2017-07-24T02:35:50.381Z,59.85
2017-07-24T02:36:52.213Z,60.24
2017-07-24T02:37:54.046Z,60.04
2017-07-24T02:38:55.934Z,60.04
2017-07-24T02:39:57.804Z,59.85
2017-07-24T02:40:59.667Z,59.85
2017-07-24T02:42:13.866Z,60.14
2017-07-24T02:43:15.733Z,60.01
2017-07-24T02:44:17.623Z,60.01
2017-07-24T02:45:19.524Z,60.01
2017-07-24T02:46:21.361Z,60.11
2017-07-24T02:47:23.188Z,60.21
2017-07-24T02:48:25.081Z,60.11
2017-07-24T02:49:26.926Z,60.01
2017-07-24T02:50:28.791Z,60.01
2017-07-24T02:51:42.937Z,60.21
2017-07-24T02:52:44.824Z,60.39
2017-07-24T02:53:46.698Z,59.92
2017-07-24T02:54:48.569Z,60.01
2017-07-24T02:55:50.404Z,60.01
2017-07-24T02:56:52.240Z,60.11
2017-07-24T02:57:54.129Z,59.92
2017-07-24T02:58:56.003Z,60.01
2017-07-24T02:59:57.895Z,60.21
2017-07-24T03:01:12.061Z,59.94
2017-07-24T03:02:13.932Z,59.85
2017-07-24T03:03:15.831Z,60.24
2017-07-24T03:04:17.716Z,60.04
2017-07-24T03:05:19.542Z,60.14
2017-07-24T03:06:21.362Z,60.17
2017-07-24T03:07:23.231Z,59.69
2017-07-24T03:08:25.126Z,59.88
2017-07-24T03:09:26.994Z,59.88
2017-07-24T03:10:41.165Z,59.69
2017-07-24T03:11:43.055Z,59.49
2017-07-24T03:12:44.921Z,59.88
2017-07-24T03:13:46.791Z,59.40
2017-07-24T03:14:48.607Z,59.88
2017-07-24T03:15:50.438Z,59.88
2017-07-24T03:16:52.315Z,59.69
2017-07-24T03:17:54.209Z,59.97
2017-07-24T03:18:56.108Z,59.69
2017-07-24T03:20:10.274Z,59.59
2017-07-24T03:21:12.143Z,59.78
2017-07-24T03:22:14.010Z,59.78
2017-07-24T03:23:15.879Z,60.36
2017-07-24T03:24:17.715Z,60.17
2017-07-24T03:25:19.547Z,60.17
2017-07-24T03:26:21.424Z,60.17
2017-07-24T03:27:23.300Z,60.46
2017-07-24T03:28:25.185Z,60.75
2017-07-24T03:29:39.336Z,61.32
2017-07-24T03:30:41.205Z,61.90
2017-07-24T03:31:43.078Z,61.90
2017-07-24T03:32:44.971Z,62.00
2017-07-24T03:33:46.805Z,62.00
2017-07-24T03:34:48.618Z,61.71
2017-07-24T03:35:50.509Z,62.19
2017-07-24T03:36:52.382Z,61.80
2017-07-24T03:37:54.260Z,61.83
2017-07-24T03:39:08.437Z,62.09
2017-07-24T03:40:10.326Z,61.80
2017-07-24T03:41:12.197Z,61.32
2017-07-24T03:42:14.073Z,61.52
2017-07-24T03:43:15.882Z,61.42
2017-07-24T03:44:17.698Z,61.22
2017-07-24T03:45:19.591Z,61.61
2017-07-24T03:46:21.465Z,61.80
2017-07-24T03:47:23.329Z,62.29
2017-07-24T03:48:37.477Z,62.19
2017-07-24T03:49:39.345Z,62.09
2017-07-24T03:50:41.216Z,61.90
2017-07-24T03:51:43.089Z,62.09
2017-07-24T03:52:44.928Z,62.48
2017-07-24T03:53:46.761Z,62.38
2017-07-24T03:54:48.636Z,62.09
2017-07-24T03:55:50.512Z,62.19
2017-07-24T03:56:52.401Z,62.38
2017-07-24T03:58:06.555Z,62.29
2017-07-24T03:59:08.448Z,62.09
2017-07-24T04:00:10.341Z,62.38
2017-07-24T04:01:12.214Z,62.12
2017-07-24T04:02:14.030Z,62.03
2017-07-24T04:03:15.868Z,61.55
2017-07-24T04:04:17.763Z,60.58
2017-07-24T04:05:19.659Z,60.49
2017-07-24T04:06:21.531Z,59.62
2017-07-24T04:07:35.706Z,60.00
2017-07-24T04:08:37.600Z,59.23
2017-07-24T04:09:39.473Z,59.36
2017-07-24T04:10:41.352Z,59.17
2017-07-24T04:11:43.189Z,59.07
2017-07-24T04:12:45.027Z,58.49
2017-07-24T04:13:46.927Z,58.49
2017-07-24T04:14:48.779Z,58.88
2017-07-24T04:15:50.592Z,58.20
2017-07-24T04:17:04.735Z,58.20
2017-07-24T04:18:06.609Z,58.11
2017-07-24T04:19:08.509Z,57.92
2017-07-24T04:20:10.413Z,58.23
2017-07-24T04:21:12.219Z,58.23
2017-07-24T04:22:14.026Z,57.75
2017-07-24T04:23:15.898Z,57.17
2017-07-24T04:24:17.773Z,57.56
2017-07-24T04:25:19.665Z,57.56
2017-07-24T04:26:33.821Z,57.29
2017-07-24T04:27:35.694Z,56.16
2017-07-24T04:28:37.589Z,55.81
2017-07-24T04:29:39.468Z,55.35
2017-07-24T04:30:41.307Z,54.29
2017-07-24T04:31:43.126Z,54.19
2017-07-24T04:32:44.991Z,53.42
2017-07-24T04:33:46.864Z,53.06
2017-07-24T04:34:48.738Z,52.87
2017-07-24T04:36:02.923Z,52.41
2017-07-24T04:37:04.812Z,52.02
2017-07-24T04:38:06.685Z,51.76
2017-07-24T04:39:08.561Z,50.98
2017-07-24T04:40:10.386Z,50.82
2017-07-24T04:41:12.216Z,49.87
2017-07-24T04:42:14.092Z,49.39
2017-07-24T04:43:15.965Z,48.90
2017-07-24T04:44:17.839Z,48.44
2017-07-24T04:45:32.017Z,48.25
2017-07-24T04:46:33.888Z,47.60
2017-07-24T04:47:35.761Z,47.30
2017-07-24T04:48:37.639Z,46.94
2017-07-24T04:49:39.485Z,46.26
2017-07-24T04:50:41.327Z,45.31
2017-07-24T04:51:43.229Z,44.92
2017-07-24T04:52:45.132Z,44.54
2017-07-24T04:53:47.021Z,44.46
2017-07-24T04:55:01.178Z,44.17
2017-07-24T04:56:03.050Z,43.78
2017-07-24T04:57:04.931Z,42.91
2017-07-24T04:58:06.833Z,41.96
2017-07-24T04:59:08.667Z,41.10
2017-07-24T05:00:10.487Z,40.54
2017-07-24T05:01:12.370Z,39.96
2017-07-24T05:02:14.273Z,39.47
2017-07-24T05:03:16.169Z,39.57
2017-07-24T05:04:30.325Z,39.94
2017-07-24T05:05:32.233Z,40.11
2017-07-24T05:06:34.106Z,40.41
2017-07-24T05:07:36.013Z,40.58
2017-07-24T05:08:37.826Z,40.58
2017-07-24T05:09:39.651Z,40.97
2017-07-24T05:10:41.545Z,41.18
2017-07-24T05:11:43.421Z,41.06
2017-07-24T05:12:45.302Z,40.87
2017-07-24T05:13:59.455Z,41.45
2017-07-24T05:15:01.329Z,41.84
2017-07-24T05:16:03.231Z,41.45
2017-07-24T05:17:05.133Z,41.26
2017-07-24T05:18:06.978Z,41.43
2017-07-24T05:19:08.817Z,41.14
2017-07-24T05:20:10.701Z,41.05
2017-07-24T05:21:12.603Z,41.14
2017-07-24T05:22:14.498Z,41.14
2017-07-24T05:23:28.646Z,40.75
2017-07-24T05:24:30.559Z,40.56
2017-07-24T05:25:32.458Z,40.66
2017-07-24T05:26:34.361Z,40.95
2017-07-24T05:27:36.204Z,41.02
2017-07-24T05:28:38.047Z,40.83
2017-07-24T05:29:39.912Z,41.12
2017-07-24T05:30:41.752Z,41.41
2017-07-24T05:31:43.593Z,41.31
2017-07-24T05:32:57.810Z,41.20
2017-07-24T05:33:59.688Z,41.30
2017-07-24T05:35:01.591Z,42.05
2017-07-24T05:36:03.467Z,42.34
2017-07-24T05:37:05.279Z,42.92
2017-07-24T05:38:07.097Z,42.92
2017-07-24T05:39:08.995Z,42.22
2017-07-24T05:40:10.870Z,42.80
2017-07-24T05:41:12.749Z,43.38
2017-07-24T05:42:26.932Z,43.48
2017-07-24T05:43:28.825Z,43.68
2017-07-24T05:44:30.721Z,43.48
2017-07-24T05:45:32.605Z,43.68
2017-07-24T05:46:34.446Z,43.87
2017-07-24T05:47:36.286Z,43.96
2017-07-24T05:48:38.160Z,43.96
2017-07-24T05:49:40.045Z,43.65
2017-07-24T05:50:41.941Z,43.37
2017-07-24T05:51:56.114Z,42.78
2017-07-24T05:52:57.987Z,42.51
2017-07-24T05:53:59.865Z,42.59
2017-07-24T05:55:01.743Z,42.61
2017-07-24T05:56:03.585Z,42.90
2017-07-24T05:57:05.430Z,43.38
2017-07-24T05:58:07.332Z,43.29
2017-07-24T05:59:09.233Z,43.19
2017-07-24T06:00:11.107Z,42.41
2017-07-24T06:01:25.259Z,41.55
2017-07-24T06:02:27.157Z,41.16
2017-07-24T06:03:29.059Z,41.45
2017-07-24T06:04:30.930Z,41.55
2017-07-24T06:05:32.775Z,42.03
2017-07-24T06:06:34.614Z,42.80
2017-07-24T06:07:36.511Z,42.90
2017-07-24T06:08:38.393Z,42.71
2017-07-24T06:09:40.292Z,43.19
2017-07-24T06:10:54.467Z,43.48
2017-07-24T06:11:56.343Z,43.87
2017-07-24T06:12:58.240Z,44.54
2017-07-24T06:14:00.116Z,44.84
2017-07-24T06:15:01.932Z,45.13
2017-07-24T06:16:03.750Z,44.93
2017-07-24T06:17:05.652Z,44.93
2017-07-24T06:18:07.553Z,44.26
2017-07-24T06:19:09.450Z,43.96
2017-07-24T06:20:23.660Z,43.58
2017-07-24T06:21:25.559Z,43.58
2017-07-24T06:22:27.432Z,43.41
2017-07-24T06:23:29.329Z,43.41
2017-07-24T06:24:31.144Z,43.41
2017-07-24T06:25:32.963Z,42.72
2017-07-24T06:26:34.842Z,42.24
2017-07-24T06:27:36.738Z,41.47
2017-07-24T06:28:38.575Z,40.40
2017-07-24T06:29:52.731Z,39.92
2017-07-24T06:30:54.629Z,40.01
2017-07-24T06:31:56.526Z,40.01
2017-07-24T06:32:58.412Z,40.21
2017-07-24T06:34:00.251Z,40.31
2017-07-24T06:35:02.091Z,40.31
2017-07-24T06:36:03.973Z,40.40
2017-07-24T06:37:05.871Z,40.50
2017-07-24T06:38:07.769Z,40.40
2017-07-24T06:39:21.920Z,40.11
2017-07-24T06:40:23.799Z,40.01
2017-07-24T06:41:25.704Z,39.92
2017-07-24T06:42:27.603Z,39.62
2017-07-24T06:43:29.418Z,40.01
2017-07-24T06:44:31.238Z,40.03
2017-07-24T06:45:33.151Z,39.94
2017-07-24T06:46:35.015Z,39.84
2017-07-24T06:47:36.909Z,39.65
2017-07-24T06:48:51.092Z,39.65
2017-07-24T06:49:52.990Z,39.55
2017-07-24T06:50:54.895Z,39.74
2017-07-24T06:51:56.791Z,39.57
2017-07-24T06:52:58.616Z,39.86
2017-07-24T06:54:00.452Z,39.88
2017-07-24T06:55:02.334Z,39.69
2017-07-24T06:56:04.211Z,39.49
2017-07-24T06:57:06.112Z,39.11
2017-07-24T06:58:20.293Z,38.04
2017-07-24T06:59:22.191Z,38.04
2017-07-24T07:00:24.088Z,38.25
2017-07-24T07:01:25.974Z,38.23
2017-07-24T07:02:27.789Z,38.23
2017-07-24T07:03:29.660Z,37.92
2017-07-24T07:04:31.540Z,38.02
2017-07-24T07:05:33.410Z,37.92
2017-07-24T07:06:35.308Z,38.02
2017-07-24T07:07:49.464Z,37.82
2017-07-24T07:08:51.335Z,37.82
2017-07-24T07:09:53.214Z,37.82
2017-07-24T07:10:55.095Z,37.82
2017-07-24T07:11:56.934Z,37.84
2017-07-24T07:12:58.752Z,37.26
2017-07-24T07:14:00.719Z,37.16
2017-07-24T07:15:02.616Z,37.18
2017-07-24T07:16:04.495Z,36.77
2017-07-24T07:17:19.067Z,36.77
2017-07-24T07:18:20.914Z,37.15
2017-07-24T07:19:22.788Z,37.53
2017-07-24T07:20:24.669Z,37.81
2017-07-24T07:21:26.486Z,37.90
2017-07-24T07:22:28.308Z,38.29
2017-07-24T07:23:30.209Z,39.06
2017-07-24T07:24:32.050Z,39.16
2017-07-24T07:25:33.889Z,38.68
2017-07-24T07:26:48.094Z,38.12
2017-07-24T07:27:49.966Z,37.53
2017-07-24T07:28:51.873Z,37.34
2017-07-24T07:29:53.764Z,37.43
2017-07-24T07:30:55.589Z,37.81
2017-07-24T07:31:57.434Z,38.29
2017-07-24T07:32:59.314Z,37.92
2017-07-24T07:34:01.213Z,37.15
2017-07-24T07:35:03.089Z,37.03
2017-07-24T07:36:17.247Z,37.81
2017-07-24T07:37:19.149Z,38.17
2017-07-24T07:38:21.051Z,39.26
2017-07-24T07:39:22.957Z,38.68
2017-07-24T07:40:24.804Z,39.24
2017-07-24T07:41:26.648Z,39.04
2017-07-24T07:42:28.514Z,39.53
2017-07-24T07:43:30.430Z,39.55
2017-07-24T07:44:32.244Z,40.31
2017-07-24T07:45:46.497Z,40.59
2017-07-24T07:46:48.360Z,40.59
2017-07-24T07:47:50.262Z,40.33
2017-07-24T07:48:52.166Z,40.23
2017-07-24T07:49:54.011Z,40.23
2017-07-24T07:50:55.854Z,40.61
2017-07-24T07:51:57.760Z,41.00
2017-07-24T07:52:59.661Z,41.00
2017-07-24T07:54:01.540Z,39.74
2017-07-24T07:55:15.728Z,38.96
2017-07-24T07:56:17.623Z,39.84
2017-07-24T07:57:19.525Z,40.23
2017-07-24T07:58:21.408Z,40.42
2017-07-24T07:59:23.250Z,40.31
2017-07-24T08:00:25.120Z,40.40
2017-07-24T08:01:26.975Z,40.81
2017-07-24T08:02:28.854Z,40.42
2017-07-24T08:03:30.728Z,40.33
2017-07-24T08:04:44.886Z,40.13
2017-07-24T08:05:46.785Z,40.23
2017-07-24T08:06:48.648Z,40.31
2017-07-24T08:07:50.571Z,40.21
2017-07-24T08:08:52.420Z,39.84
2017-07-24T08:09:54.244Z,39.74
2017-07-24T08:10:56.113Z,39.06
2017-07-24T08:11:57.991Z,39.16
2017-07-24T08:12:59.953Z,39.57
2017-07-24T08:14:14.137Z,39.57
2017-07-24T08:15:16.010Z,39.29
2017-07-24T08:16:17.890Z,38.32
2017-07-24T08:17:19.791Z,37.84
2017-07-24T08:18:21.611Z,37.45
2017-07-24T08:19:23.548Z,36.38
2017-07-24T08:20:25.481Z,36.68
2017-07-24T08:21:27.389Z,36.87
2017-07-24T08:22:29.258Z,37.35
2017-07-24T08:23:43.417Z,37.96
2017-07-24T08:24:45.338Z,37.30
2017-07-24T08:25:47.236Z,37.01
2017-07-24T08:26:49.112Z,36.93
2017-07-24T08:27:50.950Z,36.55
2017-07-24T08:28:52.782Z,36.16
2017-07-24T08:29:54.682Z,34.90
2017-07-24T08:30:56.560Z,34.11
2017-07-24T08:31:58.459Z,34.19
2017-07-24T08:33:12.619Z,35.74
2017-07-24T08:34:14.511Z,36.22
2017-07-24T08:35:16.399Z,36.54
2017-07-24T08:36:18.277Z,35.97
2017-07-24T08:37:20.126Z,35.50
2017-07-24T08:38:21.972Z,34.63
2017-07-24T08:39:23.831Z,33.85
2017-07-24T08:40:25.658Z,33.95
2017-07-24T08:41:27.509Z,33.65
2017-07-24T08:42:41.668Z,33.95
2017-07-24T08:43:43.544Z,33.64
2017-07-24T08:44:45.421Z,34.12
2017-07-24T08:45:47.302Z,34.12
2017-07-24T08:46:49.150Z,34.14
2017-07-24T08:47:51.005Z,33.75
2017-07-24T08:48:52.884Z,33.17
2017-07-24T08:49:54.769Z,33.07
2017-07-24T08:50:56.678Z,32.78
2017-07-24T08:52:10.841Z,32.59
2017-07-24T08:53:12.663Z,32.20
2017-07-24T08:54:14.528Z,32.02
2017-07-24T08:55:16.433Z,31.82
2017-07-24T08:56:18.315Z,31.35
2017-07-24T08:57:20.190Z,31.04
2017-07-24T08:58:22.009Z,32.02
2017-07-24T08:59:23.853Z,32.29
2017-07-24T09:00:25.732Z,31.90
2017-07-24T09:01:39.958Z,31.21
2017-07-24T09:02:41.858Z,31.70
2017-07-24T09:03:43.763Z,32.37
2017-07-24T09:04:45.669Z,32.26
2017-07-24T09:05:47.491Z,33.14
2017-07-24T09:06:49.334Z,34.20
2017-07-24T09:07:51.239Z,34.30
2017-07-24T09:08:53.146Z,33.72
2017-07-24T09:09:55.047Z,33.64
2017-07-24T09:11:09.228Z,33.54
2017-07-24T09:12:11.106Z,33.44
2017-07-24T09:13:13.014Z,33.54
2017-07-24T09:14:14.893Z,33.34
2017-07-24T09:15:16.713Z,33.73
2017-07-24T09:16:18.564Z,33.83
2017-07-24T09:17:20.464Z,34.22
2017-07-24T09:18:22.359Z,34.33
2017-07-24T09:19:24.242Z,33.58
2017-07-24T09:20:38.414Z,32.70
2017-07-24T09:21:40.311Z,31.34
2017-07-24T09:22:42.191Z,32.11
2017-07-24T09:23:44.100Z,31.92
2017-07-24T09:24:45.947Z,32.02
2017-07-24T09:25:47.790Z,32.60
2017-07-24T09:26:49.665Z,31.03
2017-07-24T09:27:51.553Z,30.74
2017-07-24T09:28:53.456Z,30.83
2017-07-24T09:30:07.644Z,30.93
2017-07-24T09:31:09.547Z,31.41
2017-07-24T09:32:11.450Z,32.00
2017-07-24T09:33:13.355Z,32.29
2017-07-24T09:34:15.171Z,32.59
2017-07-24T09:35:16.998Z,33.38
2017-07-24T09:36:18.880Z,33.39
2017-07-24T09:37:20.784Z,33.39
2017-07-24T09:38:22.696Z,33.41
2017-07-24T09:39:36.849Z,33.14
2017-07-24T09:40:38.730Z,32.75
2017-07-24T09:41:40.607Z,32.26
2017-07-24T09:42:42.485Z,30.81
2017-07-24T09:43:44.332Z,30.71
2017-07-24T09:44:46.149Z,29.75
2017-07-24T09:45:48.036Z,30.15
2017-07-24T09:46:49.943Z,30.15
2017-07-24T09:47:51.845Z,29.85
2017-07-24T09:49:06.007Z,30.15
2017-07-24T09:50:07.904Z,29.75
2017-07-24T09:51:09.784Z,30.65
2017-07-24T09:52:11.666Z,30.35
2017-07-24T09:53:13.516Z,30.45
2017-07-24T09:54:15.358Z,30.54
2017-07-24T09:55:17.242Z,30.44
2017-07-24T09:56:19.118Z,30.63
2017-07-24T09:57:21.019Z,30.63
2017-07-24T09:58:35.207Z,30.71
2017-07-24T09:59:37.105Z,30.41
2017-07-24T10:00:39.015Z,31.27
2017-07-24T10:01:40.889Z,32.03
2017-07-24T10:02:42.708Z,31.84
2017-07-24T10:03:44.532Z,32.03
2017-07-24T10:04:46.424Z,31.84
2017-07-24T10:05:48.307Z,32.40
2017-07-24T10:06:50.188Z,32.70
2017-07-24T10:08:04.349Z,33.20
2017-07-24T10:09:06.253Z,32.91
2017-07-24T10:10:08.152Z,33.02
2017-07-24T10:11:10.031Z,32.53
2017-07-24T10:12:11.857Z,33.04
2017-07-24T10:13:13.672Z,32.94
2017-07-24T10:14:15.553Z,32.84
2017-07-24T10:15:17.436Z,32.16
2017-07-24T10:16:19.320Z,32.65
2017-07-24T10:17:33.500Z,33.23
2017-07-24T10:18:35.384Z,33.43
2017-07-24T10:19:37.287Z,32.86
2017-07-24T10:20:39.192Z,32.08
2017-07-24T10:21:41.008Z,31.79
2017-07-24T10:22:42.833Z,32.19
2017-07-24T10:23:44.717Z,31.51
2017-07-24T10:24:46.617Z,31.12
2017-07-24T10:25:48.525Z,30.73
2017-07-24T10:27:02.686Z,30.44
2017-07-24T10:28:04.567Z,30.05
2017-07-24T10:29:06.442Z,30.15
2017-07-24T10:30:08.324Z,30.24
2017-07-24T10:31:10.164Z,30.26
2017-07-24T10:32:11.988Z,30.16
2017-07-24T10:33:13.875Z,29.86
2017-07-24T10:34:15.773Z,29.96
2017-07-24T10:35:17.653Z,29.67
2017-07-24T10:36:31.811Z,29.28
2017-07-24T10:37:33.690Z,29.18
2017-07-24T10:38:35.575Z,28.89
2017-07-24T10:39:37.452Z,28.69
2017-07-24T10:40:39.272Z,28.99
2017-07-24T10:41:41.102Z,28.50
2017-07-24T10:42:43.001Z,28.42
2017-07-24T10:43:44.904Z,28.61
2017-07-24T10:44:46.789Z,28.12
2017-07-24T10:46:00.973Z,28.03
2017-07-24T10:47:02.876Z,28.12
2017-07-24T10:48:04.771Z,28.52
2017-07-24T10:49:06.649Z,28.61
2017-07-24T10:50:08.471Z,29.00
2017-07-24T10:51:10.303Z,28.52
2017-07-24T10:52:12.214Z,28.71
2017-07-24T10:53:14.115Z,28.71
2017-07-24T10:54:16.002Z,28.22
2017-07-24T10:55:30.155Z,28.52
2017-07-24T10:56:32.064Z,28.63
2017-07-24T10:57:33.969Z,28.23
2017-07-24T10:58:35.857Z,28.33
2017-07-24T10:59:37.701Z,28.52
2017-07-24T11:00:39.525Z,28.22
2017-07-24T11:01:41.410Z,28.42
2017-07-24T11:02:43.314Z,28.53
2017-07-24T11:03:45.198Z,28.52
2017-07-24T11:04:59.408Z,28.63
2017-07-24T11:06:01.309Z,28.14
2017-07-24T11:07:03.215Z,28.14
2017-07-24T11:08:05.131Z,28.23
2017-07-24T11:09:06.972Z,28.23
2017-07-24T11:10:08.788Z,28.63
2017-07-24T11:11:10.666Z,28.43
2017-07-24T11:12:12.554Z,28.53
2017-07-24T11:13:14.431Z,28.23
2017-07-24T11:14:28.621Z,28.14
2017-07-24T11:15:30.533Z,28.14
2017-07-24T11:16:32.445Z,27.84
2017-07-24T11:17:34.360Z,27.16
2017-07-24T11:18:36.198Z,26.48
2017-07-24T11:19:38.042Z,26.87
2017-07-24T11:20:39.933Z,26.48
2017-07-24T11:21:42.077Z,26.48
2017-07-24T11:22:44.107Z,26.29
2017-07-24T11:23:58.284Z,25.90
2017-07-24T11:25:00.169Z,25.90
2017-07-24T11:26:02.074Z,26.50
2017-07-24T11:27:03.950Z,26.01
2017-07-24T11:28:05.782Z,25.62
2017-07-24T11:29:07.630Z,24.85
2017-07-24T11:30:09.535Z,24.95
2017-07-24T11:31:11.467Z,24.75
2017-07-24T11:32:13.326Z,24.65
2017-07-24T11:33:27.520Z,24.75
2017-07-24T11:34:29.422Z,24.85
2017-07-24T11:35:31.356Z,24.66
2017-07-24T11:36:33.242Z,24.66
2017-07-24T11:37:35.084Z,25.16
2017-07-24T11:38:36.926Z,24.57
2017-07-24T11:39:38.812Z,24.58
2017-07-24T11:40:40.720Z,24.58
2017-07-24T11:41:42.625Z,23.41
2017-07-24T11:42:56.789Z,23.00
2017-07-24T11:43:58.646Z,22.52
2017-07-24T11:45:00.578Z,22.12
2017-07-24T11:46:02.477Z,21.73
2017-07-24T11:47:04.312Z,21.83
2017-07-24T11:48:06.160Z,22.22
2017-07-24T11:49:08.071Z,22.12
2017-07-24T11:50:09.970Z,22.12
2017-07-24T11:51:11.859Z,21.81
2017-07-24T11:52:26.020Z,22.11
2017-07-24T11:53:27.934Z,22.50
2017-07-24T11:54:29.833Z,22.98
2017-07-24T11:55:31.746Z,23.19
2017-07-24T11:56:33.600Z,23.48
2017-07-24T11:57:35.451Z,23.37
2017-07-24T11:58:37.371Z,23.86
2017-07-24T11:59:39.275Z,24.55
2017-07-24T12:00:41.174Z,24.66
2017-07-24T12:01:55.351Z,25.16
2017-07-24T12:02:57.237Z,24.86
2017-07-24T12:03:59.146Z,24.77
2017-07-24T12:05:01.047Z,24.86
2017-07-24T12:06:02.910Z,24.86
2017-07-24T12:07:04.719Z,24.96
2017-07-24T12:08:06.622Z,24.08
2017-07-24T12:09:08.531Z,23.49
2017-07-24T12:10:10.411Z,23.48
2017-07-24T12:11:24.653Z,23.86
2017-07-24T12:12:26.550Z,23.65
2017-07-24T12:13:28.458Z,23.55
2017-07-24T12:14:30.373Z,24.43
2017-07-24T12:15:32.217Z,25.61
2017-07-24T12:16:34.069Z,26.20
2017-07-24T12:17:35.945Z,26.89
2017-07-24T12:18:37.849Z,26.90
2017-07-24T12:19:39.732Z,26.71
2017-07-24T12:20:53.965Z,27.01
2017-07-24T12:21:55.851Z,27.40
2017-07-24T12:22:57.757Z,27.21
2017-07-24T12:23:59.637Z,27.01
2017-07-24T12:25:01.490Z,26.73
2017-07-24T12:26:03.336Z,26.73
2017-07-24T12:27:05.242Z,26.73
2017-07-24T12:28:07.133Z,26.93
2017-07-24T12:29:09.006Z,26.93
2017-07-24T12:30:23.168Z,26.93
2017-07-24T12:31:25.051Z,26.84
2017-07-24T12:32:26.930Z,26.84
2017-07-24T12:33:28.814Z,27.24
2017-07-24T12:34:30.642Z,27.04
2017-07-24T12:35:32.485Z,27.04
2017-07-24T12:36:34.391Z,27.04
2017-07-24T12:37:36.301Z,26.95
2017-07-24T12:38:38.180Z,27.34
2017-07-24T12:39:52.377Z,27.53
2017-07-24T12:40:54.346Z,27.14
2017-07-24T12:41:56.306Z,27.04
2017-07-24T12:42:58.264Z,26.95
2017-07-24T12:44:00.093Z,27.14
2017-07-24T12:45:01.912Z,26.86
2017-07-24T12:46:03.838Z,26.95
2017-07-24T12:47:05.786Z,27.34
2017-07-24T12:48:07.683Z,27.34
2017-07-24T12:49:21.862Z,27.44
2017-07-24T12:50:23.748Z,27.53
2017-07-24T12:51:25.660Z,27.34
2017-07-24T12:52:27.548Z,28.02
2017-07-24T12:53:29.401Z,27.53
2017-07-24T12:54:31.273Z,28.02
2017-07-24T12:55:33.166Z,27.73
2017-07-24T12:56:35.077Z,27.73
2017-07-24T12:57:37.017Z,28.02
2017-07-24T12:58:51.226Z,27.92
2017-07-24T12:59:53.177Z,28.61
2017-07-24T13:00:55.092Z,28.41
2017-07-24T13:01:56.984Z,28.81
2017-07-24T13:02:58.807Z,28.71
2017-07-24T13:04:00.655Z,28.81
2017-07-24T13:05:02.611Z,28.61
2017-07-24T13:06:04.519Z,28.81
2017-07-24T13:07:06.422Z,28.50
2017-07-24T13:08:20.612Z,28.69
2017-07-24T13:09:22.491Z,28.97
2017-07-24T13:10:24.372Z,29.74
2017-07-24T13:11:26.282Z,30.22
2017-07-24T13:12:28.128Z,30.61
2017-07-24T13:13:29.975Z,31.08
2017-07-24T13:14:31.882Z,31.28
2017-07-24T13:15:33.813Z,31.85
2017-07-24T13:16:35.683Z,31.87
2017-07-24T13:17:49.840Z,31.57
2017-07-24T13:18:51.722Z,31.08
2017-07-24T13:19:53.639Z,30.98
2017-07-24T13:20:55.519Z,30.87
2017-07-24T13:21:57.340Z,30.97
2017-07-24T13:22:59.155Z,30.87
2017-07-24T13:24:01.044Z,30.86
2017-07-24T13:25:02.948Z,31.15
2017-07-24T13:26:04.833Z,31.64
2017-07-24T13:27:18.997Z,31.45
2017-07-24T13:28:20.903Z,31.74
2017-07-24T13:29:22.810Z,31.74
2017-07-24T13:30:24.675Z,31.56
2017-07-24T13:31:26.500Z,31.85
2017-07-24T13:32:28.320Z,31.96
2017-07-24T13:33:30.205Z,32.06
2017-07-24T13:34:32.113Z,31.68